Kettle Falls, Washington
Current Conditions -  °F | °C
As of 5:00 PM on Saturday 22 Nov 2014 (Local Time) from CYCG Reporting Station
Few Clouds Few Clouds  
Wind Chill: 39°   Ceiling: Unl
Heat Index: 39°   Visibility: 15mi
Dew Point: 32°   Wind: 3mph
Humidity: 75%   Direction: NA
Pressure: 29.74"   Gusts: NA
Location:  48.61°N, 118.06°W
Report Text: CYCG 230100Z VRB03KT 15SM FEW040 FEW080 04/00 A2974 RMK SC1AC1 LAST OBS/NEXT 231400UTC PRESRR SLP087
Loading
Personal Weather Stations






























Interactive Weather Map New forecast layout! Learn more

10-Day Weather Forecast

Advertisements
Track Severe Weather on mobile